createdAt,value
2018-02-27T00:00:01.802Z,3.70
2018-02-27T00:02:30.020Z,4.00
2018-02-27T00:04:57.458Z,3.85
2018-02-27T00:07:24.896Z,3.17
2018-02-27T00:09:53.113Z,4.05
2018-02-27T00:12:20.545Z,4.47
2018-02-27T00:14:47.975Z,4.22
2018-02-27T00:17:15.414Z,3.72
2018-02-27T00:19:42.874Z,3.95
2018-02-27T00:22:10.319Z,4.00
2018-02-27T00:24:37.770Z,4.75
2018-02-27T00:27:05.213Z,3.70
2018-02-27T00:29:32.655Z,3.72
2018-02-27T00:32:00.097Z,4.12
2018-02-27T00:34:28.288Z,4.43
2018-02-27T00:36:55.724Z,4.05
2018-02-27T00:39:23.919Z,3.53
2018-02-27T00:41:51.378Z,3.33
2018-02-27T00:44:18.821Z,3.90
2018-02-27T00:46:46.265Z,3.70
2018-02-27T00:49:14.482Z,6.37
2018-02-27T00:51:41.969Z,3.97
2018-02-27T00:54:10.147Z,6.07
2018-02-27T00:56:37.583Z,4.30
2018-02-27T00:59:05.034Z,4.30
2018-02-27T01:01:32.469Z,4.47
2018-02-27T01:03:59.916Z,3.85
2018-02-27T01:06:27.357Z,3.12
2018-02-27T01:08:55.557Z,4.10
2018-02-27T01:11:22.997Z,4.22
2018-02-27T01:13:50.450Z,3.55
2018-02-27T01:16:18.659Z,6.97
2018-02-27T01:18:46.151Z,3.33
2018-02-27T01:21:13.542Z,2.75
2018-02-27T01:23:41.759Z,3.45
2018-02-27T01:26:09.199Z,4.15
2018-02-27T01:28:36.653Z,2.85
2018-02-27T01:31:04.109Z,2.17
2018-02-27T01:33:31.546Z,2.17
2018-02-27T01:35:59.767Z,1.58
2018-02-27T01:38:27.211Z,1.62
2018-02-27T01:40:54.657Z,2.10
2018-02-27T01:43:22.097Z,2.70
2018-02-27T01:45:49.544Z,3.12
2018-02-27T01:48:17.754Z,1.70
2018-02-27T01:50:45.199Z,1.77
2018-02-27T01:53:12.638Z,1.87
2018-02-27T01:55:40.870Z,1.65
2018-02-27T01:58:08.310Z,1.70
2018-02-27T02:00:35.758Z,2.00
2018-02-27T02:03:03.205Z,1.92
2018-02-27T02:05:30.642Z,2.15
2018-02-27T02:07:58.863Z,3.17
2018-02-27T02:10:26.310Z,2.67
2018-02-27T02:12:53.753Z,2.20
2018-02-27T02:15:21.189Z,2.40
2018-02-27T02:17:49.410Z,2.67
2018-02-27T02:20:16.846Z,5.25
2018-02-27T02:22:44.295Z,2.67
2018-02-27T02:25:11.757Z,3.58
2018-02-27T02:27:39.936Z,4.22
2018-02-27T02:30:07.362Z,3.17
2018-02-27T02:32:35.577Z,3.35
2018-02-27T02:35:03.017Z,2.70
2018-02-27T02:37:30.468Z,3.95
2018-02-27T02:39:57.910Z,2.90
2018-02-27T02:42:26.180Z,3.35
2018-02-27T02:44:53.615Z,6.03
2018-02-27T02:47:21.058Z,3.90
2018-02-27T02:49:48.518Z,11.25
2018-02-27T02:52:15.959Z,3.00
2018-02-27T02:54:43.414Z,3.28
2018-02-27T02:57:10.850Z,3.45
2018-02-27T02:59:38.297Z,2.70
2018-02-27T03:02:06.485Z,3.03
2018-02-27T03:04:33.966Z,4.60
2018-02-27T03:07:01.402Z,3.28
2018-02-27T03:09:28.867Z,4.95
2018-02-27T03:11:56.302Z,2.53
2018-02-27T03:14:23.725Z,7.65
2018-02-27T03:16:51.178Z,3.22
2018-02-27T03:19:18.627Z,3.53
2018-02-27T03:21:46.068Z,3.20
2018-02-27T03:24:13.518Z,3.12
2018-02-27T03:26:40.950Z,2.60
2018-02-27T03:29:08.397Z,2.55
2018-02-27T03:31:36.607Z,3.55
2018-02-27T03:34:04.058Z,3.60
2018-02-27T03:36:31.521Z,3.50
2018-02-27T03:38:58.958Z,3.65
2018-02-27T03:41:26.412Z,7.22
2018-02-27T03:43:53.861Z,3.87
2018-02-27T03:46:22.083Z,6.30
2018-02-27T03:48:49.523Z,3.80
2018-02-27T03:51:16.980Z,4.28
2018-02-27T03:53:44.419Z,4.12
2018-02-27T03:56:11.862Z,2.53
2018-02-27T03:58:40.071Z,7.35
2018-02-27T04:01:07.527Z,6.03
2018-02-27T04:03:34.967Z,2.58
2018-02-27T04:06:02.398Z,2.45
2018-02-27T04:08:30.623Z,2.35
2018-02-27T04:10:58.075Z,4.20
2018-02-27T04:13:25.525Z,4.30
2018-02-27T04:15:52.948Z,3.12
2018-02-27T04:18:21.166Z,2.25
2018-02-27T04:20:48.602Z,2.45
2018-02-27T04:23:16.052Z,5.62
2018-02-27T04:25:43.487Z,9.88
2018-02-27T04:28:11.713Z,4.93
2018-02-27T04:30:39.165Z,3.30
2018-02-27T04:33:06.626Z,2.78
2018-02-27T04:35:34.071Z,4.30
2018-02-27T04:38:01.502Z,4.68
2018-02-27T04:40:29.718Z,8.57
2018-02-27T04:42:57.159Z,7.47
2018-02-27T04:45:24.610Z,10.18
2018-02-27T04:47:52.047Z,7.53
2018-02-27T04:50:20.259Z,7.97
2018-02-27T04:52:47.706Z,10.30
2018-02-27T04:55:15.173Z,32.05
2018-02-27T04:57:42.622Z,10.38
2018-02-27T05:00:10.071Z,10.35
2018-02-27T05:02:37.510Z,12.70
2018-02-27T05:05:05.732Z,8.30
2018-02-27T05:07:33.173Z,8.85
2018-02-27T05:10:00.623Z,8.10
2018-02-27T05:12:28.058Z,8.73
2018-02-27T05:14:56.266Z,10.23
2018-02-27T05:17:24.017Z,4.28
2018-02-27T05:19:51.455Z,8.30
2018-02-27T05:22:19.663Z,5.22
2018-02-27T05:24:47.102Z,7.15
2018-02-27T05:27:14.550Z,7.87
2018-02-27T05:29:42.747Z,5.95
2018-02-27T05:32:10.189Z,4.72
2018-02-27T05:34:37.666Z,3.30
2018-02-27T05:37:05.866Z,3.62
2018-02-27T05:39:33.310Z,4.97
2018-02-27T05:42:00.755Z,3.67
2018-02-27T05:44:28.202Z,10.55
2018-02-27T05:46:55.642Z,4.03
2018-02-27T05:49:23.850Z,4.55
2018-02-27T05:51:51.289Z,4.53
2018-02-27T05:54:18.737Z,6.62
2018-02-27T05:56:46.180Z,11.10
2018-02-27T05:59:14.514Z,9.45
2018-02-27T06:01:41.967Z,5.80
2018-02-27T06:04:09.426Z,5.60
2018-02-27T06:06:36.861Z,3.05
2018-02-27T06:09:04.327Z,6.35
2018-02-27T06:11:31.768Z,5.45
2018-02-27T06:13:59.223Z,4.78
2018-02-27T06:16:26.657Z,8.75
2018-02-27T06:18:54.898Z,9.70
2018-02-27T06:21:22.338Z,8.60
2018-02-27T06:23:49.802Z,11.63
2018-02-27T06:26:17.255Z,33.67
2018-02-27T06:28:44.695Z,33.30
2018-02-27T06:31:12.146Z,25.12
2018-02-27T06:33:39.596Z,13.88
2018-02-27T06:36:07.090Z,13.90
2018-02-27T06:38:34.546Z,9.35
2018-02-27T06:41:01.974Z,8.57
2018-02-27T06:43:29.415Z,11.23
2018-02-27T06:45:57.631Z,7.93
2018-02-27T06:48:25.075Z,11.38
2018-02-27T06:50:52.523Z,6.07
2018-02-27T06:53:19.956Z,6.22
2018-02-27T06:55:48.145Z,6.47
2018-02-27T06:58:15.578Z,6.80
2018-02-27T07:00:43.792Z,9.38
2018-02-27T07:03:11.222Z,6.50
2018-02-27T07:05:39.532Z,9.15
2018-02-27T07:08:06.943Z,7.37
2018-02-27T07:10:35.162Z,6.62
2018-02-27T07:13:02.604Z,11.23
2018-02-27T07:15:30.048Z,7.32
2018-02-27T07:17:58.250Z,6.03
2018-02-27T07:20:25.699Z,5.70
2018-02-27T07:22:53.134Z,3.45
2018-02-27T07:25:21.335Z,8.30
2018-02-27T07:27:48.767Z,6.35
2018-02-27T07:30:16.976Z,6.65
2018-02-27T07:32:44.566Z,6.40
2018-02-27T07:35:12.014Z,5.50
2018-02-27T07:37:39.450Z,5.35
2018-02-27T07:40:06.898Z,4.40
2018-02-27T07:42:34.345Z,6.72
2018-02-27T07:45:01.786Z,10.75
2018-02-27T07:47:30.004Z,7.50
2018-02-27T07:49:57.444Z,13.50
2018-02-27T07:52:24.897Z,6.28
2018-02-27T07:54:52.334Z,9.05
2018-02-27T07:57:20.547Z,8.15
2018-02-27T07:59:47.990Z,5.97
2018-02-27T08:02:15.435Z,5.80
2018-02-27T08:04:42.875Z,11.15
2018-02-27T08:07:11.084Z,13.68
2018-02-27T08:09:38.537Z,9.07
2018-02-27T08:12:05.986Z,4.28
2018-02-27T08:14:33.414Z,7.22
2018-02-27T08:17:01.630Z,6.65
2018-02-27T08:19:29.080Z,9.68
2018-02-27T08:21:56.538Z,11.20
2018-02-27T08:24:23.960Z,6.37
2018-02-27T08:26:52.179Z,7.55
2018-02-27T08:29:19.615Z,6.18
2018-02-27T08:31:47.066Z,6.25
2018-02-27T08:34:15.266Z,5.03
2018-02-27T08:36:42.718Z,5.35
2018-02-27T08:39:10.154Z,5.18
2018-02-27T08:41:38.370Z,5.10
2018-02-27T08:44:05.797Z,9.57
2018-02-27T08:46:33.246Z,5.47
2018-02-27T08:49:00.682Z,11.15
2018-02-27T08:51:28.895Z,9.23
2018-02-27T08:53:56.329Z,5.82
2018-02-27T08:56:24.531Z,4.47
2018-02-27T08:58:51.967Z,7.25
2018-02-27T09:01:19.404Z,4.60
2018-02-27T09:03:47.611Z,2.97
2018-02-27T09:06:15.054Z,4.62
2018-02-27T09:08:42.498Z,29.77
2018-02-27T09:11:10.705Z,7.22
2018-02-27T09:13:38.150Z,3.72
2018-02-27T09:16:05.590Z,4.25
2018-02-27T09:18:33.810Z,3.12
2018-02-27T09:21:01.251Z,2.90
2018-02-27T09:23:28.695Z,2.75
2018-02-27T09:25:56.126Z,4.07
2018-02-27T09:28:24.344Z,3.78
2018-02-27T09:30:51.786Z,4.65
2018-02-27T09:33:19.235Z,3.22
2018-02-27T09:35:46.675Z,5.97
2018-02-27T09:38:14.905Z,7.25
2018-02-27T09:40:42.370Z,5.62
2018-02-27T09:43:09.805Z,5.87
2018-02-27T09:45:37.251Z,11.77
2018-02-27T09:48:04.698Z,6.03
2018-02-27T09:50:32.138Z,2.87
2018-02-27T09:53:00.363Z,3.62
2018-02-27T09:55:27.798Z,9.82
2018-02-27T09:57:55.250Z,7.25
2018-02-27T10:00:22.689Z,5.03
2018-02-27T10:02:50.900Z,4.72
2018-02-27T10:05:18.342Z,3.37
2018-02-27T10:07:45.798Z,3.55
2018-02-27T10:10:13.239Z,2.65
2018-02-27T10:12:41.514Z,2.62
2018-02-27T10:15:08.908Z,2.97
2018-02-27T10:17:36.362Z,3.53
2018-02-27T10:20:03.806Z,2.70
2018-02-27T10:22:31.246Z,3.33
2018-02-27T10:24:59.463Z,1.62
2018-02-27T10:27:27.690Z,2.87
2018-02-27T10:29:55.124Z,2.22
2018-02-27T10:32:22.554Z,2.03
2018-02-27T10:34:50.011Z,2.53
2018-02-27T10:37:17.453Z,2.45
2018-02-27T10:39:44.900Z,2.05
2018-02-27T10:42:12.335Z,2.83
2018-02-27T10:44:39.786Z,1.90
2018-02-27T10:47:08.008Z,1.40
2018-02-27T10:49:35.455Z,1.98
2018-02-27T10:52:02.900Z,1.30
2018-02-27T10:54:30.345Z,1.00
2018-02-27T10:56:57.777Z,1.48
2018-02-27T10:59:25.998Z,1.33
2018-02-27T11:01:56.370Z,1.05
2018-02-27T11:04:23.786Z,1.73
2018-02-27T11:06:51.230Z,1.30
2018-02-27T11:09:18.682Z,2.60
2018-02-27T11:11:46.130Z,2.15
2018-02-27T11:14:13.574Z,3.08
2018-02-27T11:16:41.807Z,1.67
2018-02-27T11:19:09.302Z,1.00
2018-02-27T11:21:37.517Z,1.25
2018-02-27T11:24:04.967Z,1.80
2018-02-27T11:26:32.406Z,1.43
2018-02-27T11:29:00.628Z,1.23
2018-02-27T11:31:28.058Z,0.90
2018-02-27T11:33:55.514Z,0.95
2018-02-27T11:36:22.988Z,1.33
2018-02-27T11:38:50.424Z,1.20
2018-02-27T11:41:17.851Z,2.30
2018-02-27T11:43:46.060Z,1.27
2018-02-27T11:46:13.494Z,1.30
2018-02-27T11:48:41.706Z,3.43
2018-02-27T11:51:09.151Z,1.00
2018-02-27T11:53:36.584Z,2.07
2018-02-27T11:56:04.799Z,1.20
2018-02-27T11:58:32.230Z,1.40
2018-02-27T12:00:59.665Z,1.40
2018-02-27T12:03:27.871Z,1.83
2018-02-27T12:05:55.305Z,1.30
2018-02-27T12:08:23.505Z,1.30
2018-02-27T12:10:50.950Z,1.40
2018-02-27T12:13:18.384Z,2.27
2018-02-27T12:15:46.590Z,1.23
2018-02-27T12:18:14.022Z,1.57
2018-02-27T12:20:42.242Z,5.23
2018-02-27T12:23:09.678Z,1.37
2018-02-27T12:25:37.124Z,0.90
2018-02-27T12:28:05.313Z,1.10
2018-02-27T12:30:32.762Z,1.13
2018-02-27T12:33:00.193Z,1.70
2018-02-27T12:35:28.412Z,3.53
2018-02-27T12:37:55.842Z,2.10
2018-02-27T12:40:23.286Z,2.30
2018-02-27T12:42:51.504Z,0.77
2018-02-27T12:45:18.938Z,1.20
2018-02-27T12:47:46.378Z,1.30
2018-02-27T12:50:14.578Z,3.23
2018-02-27T12:52:42.006Z,1.73
2018-02-27T12:55:10.221Z,1.13
2018-02-27T12:57:37.650Z,1.53
2018-02-27T13:00:05.095Z,1.00
2018-02-27T13:02:33.291Z,1.90
2018-02-27T13:05:00.797Z,1.50
2018-02-27T13:07:28.182Z,1.63
2018-02-27T13:09:56.388Z,1.30
2018-02-27T13:12:23.818Z,1.70
2018-02-27T13:14:52.018Z,1.13
2018-02-27T13:17:19.455Z,1.23
2018-02-27T13:19:47.664Z,5.50
2018-02-27T13:22:15.098Z,1.03
2018-02-27T13:24:42.529Z,1.10
2018-02-27T13:27:10.739Z,2.07
2018-02-27T13:29:38.220Z,0.80
2018-02-27T13:32:06.375Z,1.03
2018-02-27T13:34:33.912Z,1.67
2018-02-27T13:37:02.100Z,1.47
2018-02-27T13:39:29.533Z,2.07
2018-02-27T13:41:57.785Z,4.17
2018-02-27T13:44:25.184Z,1.33
2018-02-27T13:46:52.622Z,1.40
2018-02-27T13:49:24.845Z,2.20
2018-02-27T13:51:48.265Z,1.43
2018-02-27T13:54:15.702Z,1.07
2018-02-27T13:56:43.146Z,0.90
2018-02-27T13:59:10.570Z,2.77
2018-02-27T14:01:38.042Z,1.40
2018-02-27T14:04:05.474Z,1.03
2018-02-27T14:06:32.905Z,0.90
2018-02-27T14:09:01.102Z,1.07
2018-02-27T14:11:28.751Z,2.43
2018-02-27T14:13:56.192Z,1.03
2018-02-27T14:16:24.436Z,5.67
2018-02-27T14:18:51.895Z,1.30
2018-02-27T14:21:19.364Z,1.50
2018-02-27T14:23:46.785Z,1.53
2018-02-27T14:26:14.246Z,1.00
2018-02-27T14:28:41.682Z,1.40
2018-02-27T14:31:09.121Z,1.10
2018-02-27T14:33:36.558Z,2.93
2018-02-27T14:36:04.785Z,0.87
2018-02-27T14:38:32.240Z,2.00
2018-02-27T14:40:59.667Z,1.43
2018-02-27T14:43:27.900Z,1.13
2018-02-27T14:45:55.324Z,1.10
2018-02-27T14:48:22.764Z,1.50
2018-02-27T14:50:50.194Z,1.13
2018-02-27T14:53:17.634Z,0.87
2018-02-27T14:55:45.072Z,1.03
2018-02-27T14:58:12.514Z,2.03
2018-02-27T15:00:39.954Z,3.53
2018-02-27T15:03:07.429Z,1.30
2018-02-27T15:05:34.864Z,1.23
2018-02-27T15:08:02.328Z,1.37
2018-02-27T15:10:29.759Z,2.03
2018-02-27T15:12:57.980Z,0.73
2018-02-27T15:15:25.415Z,1.87
2018-02-27T15:17:52.858Z,1.90
2018-02-27T15:20:21.054Z,0.90
2018-02-27T15:22:48.502Z,1.30
2018-02-27T15:25:15.934Z,0.90
2018-02-27T15:27:44.144Z,0.80
2018-02-27T15:30:11.573Z,1.00
2018-02-27T15:32:39.794Z,1.03
2018-02-27T15:35:07.218Z,1.10
2018-02-27T15:37:34.662Z,1.87
2018-02-27T15:40:02.856Z,1.30
2018-02-27T15:42:30.295Z,1.30
2018-02-27T15:44:58.495Z,1.23
2018-02-27T15:47:25.950Z,0.73
2018-02-27T15:49:53.428Z,1.33
2018-02-27T15:52:21.593Z,4.10
2018-02-27T15:54:49.055Z,1.70
2018-02-27T15:57:17.241Z,1.00
2018-02-27T15:59:44.665Z,1.00
2018-02-27T16:02:12.960Z,1.80
2018-02-27T16:04:40.385Z,2.20
2018-02-27T16:07:08.588Z,0.90
2018-02-27T16:09:36.033Z,0.77
2018-02-27T16:12:03.471Z,0.60
2018-02-27T16:14:31.686Z,1.47
2018-02-27T16:16:59.102Z,1.37
2018-02-27T16:19:26.554Z,1.45
2018-02-27T16:21:54.766Z,2.40
2018-02-27T16:24:22.188Z,1.57
2018-02-27T16:26:50.383Z,1.40
2018-02-27T16:29:17.831Z,1.07
2018-02-27T16:31:45.275Z,2.20
2018-02-27T16:34:13.499Z,1.23
2018-02-27T16:36:40.936Z,1.70
2018-02-27T16:39:08.381Z,3.03
2018-02-27T16:41:35.865Z,1.40
2018-02-27T16:44:03.298Z,1.37
2018-02-27T16:46:30.736Z,1.33
2018-02-27T16:48:59.903Z,0.95
2018-02-27T16:51:27.332Z,1.40
2018-02-27T16:53:54.791Z,1.65
2018-02-27T16:56:22.231Z,5.70
2018-02-27T16:58:49.694Z,1.83
2018-02-27T17:01:17.130Z,1.12
2018-02-27T17:03:44.582Z,1.30
2018-02-27T17:06:12.798Z,1.27
2018-02-27T17:08:40.241Z,1.25
2018-02-27T17:11:08.446Z,0.98
2018-02-27T17:13:35.944Z,1.25
2018-02-27T17:16:03.342Z,1.33
2018-02-27T17:18:30.800Z,1.95
2018-02-27T17:20:58.243Z,3.35
2018-02-27T17:23:26.613Z,2.42
2018-02-27T17:25:54.058Z,3.42
2018-02-27T17:28:22.266Z,3.72
2018-02-27T17:30:49.726Z,2.53
2018-02-27T17:33:17.177Z,1.98
2018-02-27T17:35:44.622Z,1.65
2018-02-27T17:38:12.065Z,2.15
2018-02-27T17:40:39.516Z,1.58
2018-02-27T17:43:07.718Z,1.90
2018-02-27T17:45:35.175Z,2.17
2018-02-27T17:48:02.616Z,1.58
2018-02-27T17:50:30.067Z,1.62
2018-02-27T17:52:57.505Z,2.87
2018-02-27T17:55:24.955Z,1.40
2018-02-27T17:57:52.398Z,3.45
2018-02-27T18:00:19.859Z,2.80
2018-02-27T18:02:47.309Z,2.90
2018-02-27T18:05:14.759Z,1.67
2018-02-27T18:07:42.204Z,1.77
2018-02-27T18:10:09.660Z,4.20
2018-02-27T18:12:37.115Z,2.15
2018-02-27T18:15:04.570Z,1.62
2018-02-27T18:17:32.006Z,2.25
2018-02-27T18:19:59.462Z,1.58
2018-02-27T18:22:26.908Z,2.58
2018-02-27T18:24:55.130Z,3.05
2018-02-27T18:27:22.580Z,1.98
2018-02-27T18:29:50.037Z,4.37
2018-02-27T18:32:17.479Z,2.45
2018-02-27T18:34:44.928Z,3.10
2018-02-27T18:37:12.372Z,2.17
2018-02-27T18:39:39.832Z,3.90
2018-02-27T18:42:07.278Z,2.87
2018-02-27T18:44:35.507Z,1.87
2018-02-27T18:47:02.959Z,2.53
2018-02-27T18:49:30.448Z,2.47
2018-02-27T18:51:57.890Z,3.08
2018-02-27T18:54:25.330Z,3.25
2018-02-27T18:56:52.790Z,1.70
2018-02-27T18:59:20.237Z,2.05
2018-02-27T19:01:47.744Z,3.78
2018-02-27T19:04:15.125Z,3.00
2018-02-27T19:06:42.578Z,7.43
2018-02-27T19:09:10.769Z,4.22
2018-02-27T19:11:38.236Z,3.25
2018-02-27T19:14:05.665Z,3.78
2018-02-27T19:16:33.889Z,7.40
2018-02-27T19:19:01.335Z,2.97
2018-02-27T19:21:28.821Z,3.75
2018-02-27T19:23:56.274Z,1.87
2018-02-27T19:26:23.763Z,4.00
2018-02-27T19:28:51.175Z,3.15
2018-02-27T19:31:18.620Z,8.63
2018-02-27T19:33:46.055Z,3.37
2018-02-27T19:36:13.554Z,1.70
2018-02-27T19:38:41.002Z,5.53
2018-02-27T19:41:08.521Z,6.75
2018-02-27T19:43:36.727Z,3.47
2018-02-27T19:46:04.180Z,5.90
2018-02-27T19:48:31.622Z,4.30
2018-02-27T19:50:59.075Z,3.67
2018-02-27T19:53:26.575Z,6.72
2018-02-27T19:55:54.883Z,4.43
2018-02-27T19:58:23.163Z,4.15
2018-02-27T20:00:50.681Z,4.75
2018-02-27T20:03:18.268Z,3.35
2018-02-27T20:05:46.501Z,4.15
2018-02-27T20:08:14.076Z,3.60
2018-02-27T20:10:41.649Z,12.45
2018-02-27T20:13:09.123Z,11.43
2018-02-27T20:15:36.683Z,6.30
2018-02-27T20:18:10.616Z,6.10
2018-02-27T20:20:38.930Z,6.78
2018-02-27T20:23:12.139Z,6.93
2018-02-27T20:25:39.780Z,4.43
2018-02-27T20:28:12.807Z,5.43
2018-02-27T20:30:40.384Z,5.47
2018-02-27T20:33:08.645Z,6.28
2018-02-27T20:35:36.076Z,5.75
2018-02-27T20:38:03.541Z,5.68
2018-02-27T20:40:30.975Z,5.30
2018-02-27T20:42:58.435Z,8.45
2018-02-27T20:45:25.878Z,8.60
2018-02-27T20:47:53.334Z,10.60
2018-02-27T20:50:20.786Z,6.85
2018-02-27T20:52:48.242Z,10.95
2018-02-27T20:55:15.678Z,5.35
2018-02-27T20:57:43.939Z,11.40
2018-02-27T21:00:11.367Z,9.02
2018-02-27T21:02:38.818Z,6.93
2018-02-27T21:05:06.259Z,3.95
2018-02-27T21:07:33.707Z,9.32
2018-02-27T21:10:01.151Z,6.43
2018-02-27T21:12:29.361Z,6.22
2018-02-27T21:14:56.818Z,9.27
2018-02-27T21:17:24.263Z,12.60
2018-02-27T21:19:51.702Z,11.68
2018-02-27T21:22:19.158Z,13.23
2018-02-27T21:24:47.368Z,8.70
2018-02-27T21:27:14.816Z,14.50
2018-02-27T21:29:42.276Z,18.83
2018-02-27T21:32:09.714Z,17.00
2018-02-27T21:34:37.156Z,10.90
2018-02-27T21:37:05.376Z,8.38
2018-02-27T21:39:32.814Z,16.37
2018-02-27T21:42:00.266Z,9.10
2018-02-27T21:44:27.714Z,16.27
2018-02-27T21:46:55.160Z,11.95
2018-02-27T21:49:23.382Z,10.15
2018-02-27T21:51:50.826Z,6.68
2018-02-27T21:54:18.276Z,6.32
2018-02-27T21:56:45.710Z,6.28
2018-02-27T21:59:13.920Z,8.18
2018-02-27T22:01:41.359Z,5.78
2018-02-27T22:04:08.803Z,6.05
2018-02-27T22:06:37.005Z,4.82
2018-02-27T22:09:04.450Z,8.85
2018-02-27T22:11:31.895Z,10.70
2018-02-27T22:14:00.112Z,10.43
2018-02-27T22:16:27.555Z,12.27
2018-02-27T22:18:54.998Z,8.57
2018-02-27T22:21:22.437Z,6.37
2018-02-27T22:23:50.656Z,11.80
2018-02-27T22:26:18.090Z,7.10
2018-02-27T22:28:45.562Z,10.18
2018-02-27T22:31:12.999Z,6.68
2018-02-27T22:33:40.433Z,8.00
2018-02-27T22:36:08.640Z,7.03
2018-02-27T22:38:36.110Z,7.32
2018-02-27T22:41:03.539Z,5.10
2018-02-27T22:43:30.976Z,5.40
2018-02-27T22:45:59.181Z,4.35
2018-02-27T22:48:26.622Z,4.57
2018-02-27T22:50:54.969Z,5.35
2018-02-27T22:53:22.425Z,5.93
2018-02-27T22:55:49.862Z,3.95
2018-02-27T22:58:17.311Z,8.45
2018-02-27T23:00:44.763Z,11.32
2018-02-27T23:03:12.226Z,6.32
2018-02-27T23:05:39.702Z,8.88
2018-02-27T23:08:07.187Z,5.00
2018-02-27T23:10:34.625Z,4.03
2018-02-27T23:13:02.063Z,5.25
2018-02-27T23:15:29.521Z,10.60
2018-02-27T23:17:56.978Z,13.80
2018-02-27T23:20:24.422Z,22.45
2018-02-27T23:22:51.871Z,20.73
2018-02-27T23:25:23.341Z,17.70
2018-02-27T23:27:54.553Z,22.13
2018-02-27T23:30:22.072Z,11.30
2018-02-27T23:32:49.659Z,7.20
2018-02-27T23:35:18.126Z,8.68
2018-02-27T23:37:46.346Z,7.75
2018-02-27T23:40:13.782Z,6.65
2018-02-27T23:42:41.239Z,7.68
2018-02-27T23:45:08.677Z,8.48
2018-02-27T23:47:36.910Z,10.57
2018-02-27T23:50:04.339Z,8.82
2018-02-27T23:52:31.792Z,4.53
2018-02-27T23:54:59.234Z,6.80
2018-02-27T23:57:27.446Z,6.55
2018-02-27T23:59:54.896Z,7.03
